Seabulk Arctic — WCY7054 — position and weather

sailwx.info

Track history (hours):
 
Tides and Currents Weather Stations Pressure Air Temp Water Temp Dewpoint Dewpoint Depression Visibility Wind Speed Wind Dir Waves Ship Positions

Seabulk Arctic

Owner: LIGHTSHIP TANKERS IV LLC, FORT LAUDERDALE, FL. More information available from US FCC via Universal Licensing System and Coast Guard Vessel Documentation Center.

Last reported at 2017-Mar-24 08:05 UTC. Time now 2017-Mar-26 07:32 UTC.
Position N 25°27' W 080°01'.

Type: Tanker. MMSI: 366826000.

Date/timePositionNaut miles runAvg speedWind from/ knotsBaromVisibWave heightAir tempDewpointWater temp
2017-Mar-24 08:05N 25°27' W 080°01'510.0
2017-Mar-24 07:34N 25°32' W 080°01'10 9.8
2017-Mar-24 06:34N 25°42' W 080°00'10 9.5
2017-Mar-24 05:34N 25°51' W 079°59'9 8.9
2017-Mar-24 04:34N 26°00' W 079°59'9 8.6
2017-Mar-24 03:34N 26°06' W 080°06'1 1.2
2017-Mar-24 02:32N 26°06' W 080°07'0 0.0
2017-Mar-24 01:32N 26°06' W 080°07'0 0.0
2017-Mar-24 00:32N 26°06' W 080°07'0 0.0
2017-Mar-23 23:32N 26°06' W 080°07'0 0.0
2017-Mar-23 22:32N 26°06' W 080°07'0 0.0
2017-Mar-23 21:32N 26°06' W 080°07'0 0.0
2017-Mar-23 20:32N 26°06' W 080°07'0 0.0
2017-Mar-23 19:32N 26°06' W 080°07'0 0.0
2017-Mar-23 18:32N 26°06' W 080°07'0 0.0
2017-Mar-23 17:32N 26°06' W 080°07'0 0.0
2017-Mar-23 16:32N 26°06' W 080°07'0 0.0
2017-Mar-23 15:32N 26°06' W 080°07'0 0.0
2017-Mar-23 14:32N 26°06' W 080°07'0 0.0
2017-Mar-23 13:32N 26°06' W 080°07'0 0.0
2017-Mar-23 12:32N 26°06' W 080°07'0 0.0
2017-Mar-23 11:32N 26°06' W 080°07'0 0.0
2017-Mar-23 10:32N 26°06' W 080°07'0 0.0
2017-Mar-23 09:32N 26°06' W 080°07'0 0.0
2017-Mar-23 08:32N 26°06' W 080°07'0 0.0
2017-Mar-23 07:32N 26°06' W 080°07'0 0.0
2017-Mar-23 06:32N 26°06' W 080°07'0 0.0
2017-Mar-23 05:32N 26°06' W 080°07'0 0.0
2017-Mar-23 04:32N 26°06' W 080°07'0 0.0
2017-Mar-23 03:32N 26°06' W 080°07'0 0.0
2017-Mar-23 02:32N 26°06' W 080°07'0 0.0
2017-Mar-23 01:32N 26°06' W 080°07'0 0.0
2017-Mar-23 00:32N 26°06' W 080°07'0 0.0
2017-Mar-22 23:32N 26°06' W 080°07'0 0.0
2017-Mar-22 22:33N 26°06' W 080°07'2 2.3
2017-Mar-22 21:33N 26°06' W 080°05'6 5.5
2017-Mar-22 20:33N 26°08' W 079°59'2 2.5
2017-Mar-22 19:33N 26°10' W 079°57'9 9.1
2017-Mar-22 18:33N 26°01' W 079°55'1514.6
2017-Mar-22 17:33N 25°46' W 079°54'1414.4
2017-Mar-22 16:33N 25°32' W 079°54'1714.8
2017-Mar-22 15:23N 25°15' W 079°60'  
2017-Mar-20 11:00N 27°42' W 092°06'12016.1 190 / 91022.010.8
2017-Mar-20 03:31N 29°08' W 093°41'1311.7
2017-Mar-20 02:22N 29°22' W 093°40'9 9.9
2017-Mar-20 01:26N 29°31' W 093°42'1310.5
2017-Mar-20 00:10N 29°42' W 093°51'  
Track history (hours):
 
Tides and Currents Weather Stations Pressure Air Temp Water Temp Dewpoint Dewpoint Depression Visibility Wind Speed Wind Dir Waves Ship Positions

Seabulk Arctic

Owner: LIGHTSHIP TANKERS IV LLC, FORT LAUDERDALE, FL. More information available from US FCC via Universal Licensing System and Coast Guard Vessel Documentation Center.

Last reported at 2017-Mar-24 08:05 UTC. Time now 2017-Mar-26 07:32 UTC.
Position N 25°27' W 080°01'.

Type: Tanker. MMSI: 366826000.

Date/timePositionNaut miles runAvg speedWind from/ knotsBaromVisibWave heightAir tempDewpointWater temp
2017-Mar-24 08:05N 25°27' W 080°01'510.0
2017-Mar-24 07:34N 25°32' W 080°01'10 9.8
2017-Mar-24 06:34N 25°42' W 080°00'10 9.5
2017-Mar-24 05:34N 25°51' W 079°59'9 8.9
2017-Mar-24 04:34N 26°00' W 079°59'9 8.6
2017-Mar-24 03:34N 26°06' W 080°06'1 1.2
2017-Mar-24 02:32N 26°06' W 080°07'0 0.0
2017-Mar-24 01:32N 26°06' W 080°07'0 0.0
2017-Mar-24 00:32N 26°06' W 080°07'0 0.0
2017-Mar-23 23:32N 26°06' W 080°07'0 0.0
2017-Mar-23 22:32N 26°06' W 080°07'0 0.0
2017-Mar-23 21:32N 26°06' W 080°07'0 0.0
2017-Mar-23 20:32N 26°06' W 080°07'0 0.0
2017-Mar-23 19:32N 26°06' W 080°07'0 0.0
2017-Mar-23 18:32N 26°06' W 080°07'0 0.0
2017-Mar-23 17:32N 26°06' W 080°07'0 0.0
2017-Mar-23 16:32N 26°06' W 080°07'0 0.0
2017-Mar-23 15:32N 26°06' W 080°07'0 0.0
2017-Mar-23 14:32N 26°06' W 080°07'0 0.0
2017-Mar-23 13:32N 26°06' W 080°07'0 0.0
2017-Mar-23 12:32N 26°06' W 080°07'0 0.0
2017-Mar-23 11:32N 26°06' W 080°07'0 0.0
2017-Mar-23 10:32N 26°06' W 080°07'0 0.0
2017-Mar-23 09:32N 26°06' W 080°07'0 0.0
2017-Mar-23 08:32N 26°06' W 080°07'0 0.0
2017-Mar-23 07:32N 26°06' W 080°07'0 0.0
2017-Mar-23 06:32N 26°06' W 080°07'0 0.0
2017-Mar-23 05:32N 26°06' W 080°07'0 0.0
2017-Mar-23 04:32N 26°06' W 080°07'0 0.0
2017-Mar-23 03:32N 26°06' W 080°07'0 0.0
2017-Mar-23 02:32N 26°06' W 080°07'0 0.0
2017-Mar-23 01:32N 26°06' W 080°07'0 0.0
2017-Mar-23 00:32N 26°06' W 080°07'0 0.0
2017-Mar-22 23:32N 26°06' W 080°07'0 0.0
2017-Mar-22 22:33N 26°06' W 080°07'2 2.3
2017-Mar-22 21:33N 26°06' W 080°05'6 5.5
2017-Mar-22 20:33N 26°08' W 079°59'2 2.5
2017-Mar-22 19:33N 26°10' W 079°57'9 9.1
2017-Mar-22 18:33N 26°01' W 079°55'1514.6
2017-Mar-22 17:33N 25°46' W 079°54'1414.4
2017-Mar-22 16:33N 25°32' W 079°54'1714.8
2017-Mar-22 15:23N 25°15' W 079°60'  
2017-Mar-20 11:00N 27°42' W 092°06'12016.1 190 / 91022.010.8
2017-Mar-20 03:31N 29°08' W 093°41'1311.7
2017-Mar-20 02:22N 29°22' W 093°40'9 9.9
2017-Mar-20 01:26N 29°31' W 093°42'1310.5
2017-Mar-20 00:10N 29°42' W 093°51'  

Dump ship's entire track history